Time;durP1;ratioP1;P1;durP2;ratioP2;P2;SDS_P1;SDS_P2;PMS_P1;PMS_P2;Temp;Humidity;BMP_temperature;BMP_pressure;BME280_temperature;BME280_humidity;BME280_pressure;Samples;Min_cycle;Max_cycle;Signal;HPM_P1;HPM_P2
2022/06/21 00:01:23;;;;;;;18.08;8.15;;;;;;;23.44;53.76;92567.84;2046653;70;20197;-72
2022/06/21 00:03:50;;;;;;;13.27;7.90;;;;;;;23.33;54.45;92575.63;2044748;70;20151;-73
2022/06/21 00:06:20;;;;;;;12.27;7.93;;;;;;;23.26;55.16;92576.25;2041911;70;20166;-73
2022/06/21 00:08:46;;;;;;;12.50;7.93;;;;;;;23.58;52.77;92575.88;2044805;70;20167;-72
2022/06/21 00:11:30;;;;;;;15.30;7.85;;;;;;;23.41;54.11;92580.72;2045163;70;20186;-73
2022/06/21 00:13:56;;;;;;;13.07;7.78;;;;;;;23.23;54.28;92580.50;2045049;70;20530;-72
2022/06/21 00:16:24;;;;;;;15.40;8.25;;;;;;;23.32;54.04;92579.19;2044984;70;20151;-72
2022/06/21 00:18:50;;;;;;;12.18;8.13;;;;;;;23.07;55.25;92575.31;2044934;70;20293;-73
2022/06/21 00:21:18;;;;;;;14.18;8.05;;;;;;;23.14;55.37;92581.84;2045126;70;20182;-72
2022/06/21 00:23:44;;;;;;;17.85;7.90;;;;;;;23.08;55.29;92588.97;2044878;70;20147;-72
2022/06/21 00:26:12;;;;;;;14.40;7.60;;;;;;;22.95;56.38;92590.22;2045076;70;20135;-72
2022/06/21 00:28:38;;;;;;;12.95;8.07;;;;;;;23.06;54.84;92588.22;2044968;70;20539;-71
2022/06/21 00:31:11;;;;;;;13.43;7.90;;;;;;;22.93;55.80;92590.22;2045210;70;20664;-71
2022/06/21 00:33:36;;;;;;;15.45;8.25;;;;;;;22.73;56.47;92592.78;2045184;70;20222;-72
2022/06/21 00:36:11;;;;;;;12.82;8.80;;;;;;;22.74;56.10;92589.22;2045401;70;20246;-72
2022/06/21 00:38:36;;;;;;;12.07;7.90;;;;;;;22.67;56.91;92589.81;2044983;70;20154;-73
2022/06/21 00:41:06;;;;;;;15.27;7.47;;;;;;;22.91;55.36;92587.31;2045757;70;20178;-72
2022/06/21 00:43:36;;;;;;;16.13;8.00;;;;;;;22.63;55.72;92592.63;2048526;70;20292;-72
2022/06/21 00:46:02;;;;;;;11.75;8.20;;;;;;;22.71;56.02;92592.75;2048557;70;20330;-71
2022/06/21 00:48:41;;;;;;;17.70;8.75;;;;;;;22.65;56.70;92590.53;2048067;70;20237;-72
2022/06/21 00:51:14;;;;;;;12.50;7.93;;;;;;;22.61;56.61;92596.19;2046048;70;20580;-72
2022/06/21 00:53:47;;;;;;;14.35;8.43;;;;;;;22.70;55.23;92599.91;2048312;70;20245;-72
2022/06/21 00:56:25;;;;;;;11.90;7.72;;;;;;;22.68;56.18;92588.38;2048755;70;20178;-72
2022/06/21 00:58:50;;;;;;;13.32;8.02;;;;;;;22.70;56.17;92594.19;2044590;70;20179;-72
2022/06/21 01:01:26;;;;;;;13.35;7.93;;;;;;;22.71;55.72;92598.47;2045123;70;20154;-72
2022/06/21 01:03:56;;;;;;;15.88;8.40;;;;;;;22.51;57.17;92602.53;2045827;70;20365;-73
2022/06/21 01:06:27;;;;;;;12.40;8.02;;;;;;;22.58;53.58;92606.19;2048510;70;20170;-74
2022/06/21 01:09:28;;;;;;;14.25;8.63;;;;;;;22.46;56.85;92600.28;2044421;70;20542;-73
2022/06/21 01:12:20;;;;;;;15.55;8.23;;;;;;;22.37;57.69;92599.44;2047608;70;20147;-74
2022/06/21 01:14:57;;;;;;;12.23;8.02;;;;;;;22.57;57.00;92596.13;2045075;70;20614;-75
2022/06/21 01:17:25;;;;;;;17.70;8.43;;;;;;;22.37;57.22;92587.97;2048348;70;20682;-75
2022/06/21 01:19:56;;;;;;;13.20;7.97;;;;;;;22.57;54.92;92582.50;2047507;70;20135;-74
2022/06/21 01:22:46;;;;;;;13.10;8.52;;;;;;;22.50;57.28;92580.28;2045215;70;20174;-75
2022/06/21 01:25:27;;;;;;;14.35;8.05;;;;;;;22.51;56.78;92576.69;2048325;70;20173;-75
2022/06/21 01:27:55;;;;;;;15.10;8.60;;;;;;;22.57;55.53;92579.66;2048158;70;20161;-73
2022/06/21 01:30:24;;;;;;;16.48;8.43;;;;;;;22.47;57.37;92573.78;2047767;70;20158;-74
2022/06/21 01:32:51;;;;;;;12.95;8.35;;;;;;;22.43;57.02;92576.56;2048239;70;20622;-74
2022/06/21 01:35:33;;;;;;;12.63;8.73;;;;;;;22.02;58.15;92578.06;2048386;70;20142;-73
2022/06/21 01:38:00;;;;;;;18.38;8.98;;;;;;;22.28;57.47;92569.91;2048128;70;20150;-73
2022/06/21 01:40:34;;;;;;;14.10;8.90;;;;;;;22.27;57.61;92571.34;2045098;70;20246;-73
2022/06/21 01:43:08;;;;;;;11.98;8.30;;;;;;;22.27;57.51;92571.34;2044918;70;20155;-73
2022/06/21 01:45:39;;;;;;;11.50;8.13;;;;;;;22.30;57.36;92566.34;2044945;70;20159;-73
2022/06/21 01:48:13;;;;;;;11.15;7.97;;;;;;;22.29;57.77;92570.63;2044753;70;20143;-73
2022/06/21 01:50:42;;;;;;;14.07;8.70;;;;;;;22.46;55.61;92572.31;2044574;70;20174;-72
2022/06/21 01:53:09;;;;;;;15.10;8.40;;;;;;;22.29;56.98;92571.34;2044829;70;20163;-73
2022/06/21 01:55:43;;;;;;;14.20;8.70;;;;;;;22.14;58.16;92572.56;2041587;70;20139;-73
2022/06/21 01:58:14;;;;;;;15.73;8.98;;;;;;;22.07;57.84;92568.84;2044963;70;20230;-74
2022/06/21 02:00:46;;;;;;;17.65;9.30;;;;;;;22.17;57.49;92571.16;2044720;70;20584;-73
2022/06/21 02:03:18;;;;;;;16.60;8.67;;;;;;;22.23;57.84;92559.09;2044939;70;20214;-73
2022/06/21 02:05:49;;;;;;;14.57;8.93;;;;;;;22.06;59.10;92555.91;2044740;70;20600;-73
2022/06/21 02:08:20;;;;;;;13.80;8.50;;;;;;;22.27;56.73;92548.41;2044683;70;20251;-73
2022/06/21 02:10:54;;;;;;;18.23;8.85;;;;;;;22.11;58.27;92545.25;2047183;70;20589;-73
2022/06/21 02:13:27;;;;;;;13.75;8.70;;;;;;;22.15;57.48;92542.47;2048020;70;20238;-73
2022/06/21 02:16:01;;;;;;;15.27;8.60;;;;;;;22.06;57.61;92544.47;2048140;70;20369;-72
2022/06/21 02:18:30;;;;;;;13.48;8.65;;;;;;;21.87;58.64;92539.13;2048072;70;20155;-73
2022/06/21 02:21:03;;;;;;;16.42;9.00;;;;;;;21.86;58.77;92538.41;2041109;70;20167;-72
2022/06/21 02:23:29;;;;;;;14.32;9.05;;;;;;;21.80;58.81;92539.03;2045029;70;20162;-73
2022/06/21 02:25:57;;;;;;;15.05;8.90;;;;;;;21.86;58.34;92537.69;2045168;70;20805;-74
2022/06/21 02:28:25;;;;;;;17.02;9.98;;;;;;;21.80;58.90;92532.56;2041648;70;20186;-74
2022/06/21 02:30:52;;;;;;;17.67;8.95;;;;;;;21.80;58.62;92544.75;2047810;70;20254;-74
2022/06/21 02:33:22;;;;;;;14.18;9.00;;;;;;;21.75;58.67;92540.38;2047752;70;20548;-74
2022/06/21 02:36:13;;;;;;;16.45;9.40;;;;;;;21.42;59.48;92544.09;2047884;70;20399;-73
2022/06/21 02:38:46;;;;;;;13.50;8.80;;;;;;;21.55;59.53;92546.47;2047714;70;20242;-73
2022/06/21 02:41:17;;;;;;;11.18;8.13;;;;;;;21.62;59.61;92538.72;2047409;70;20142;-75
2022/06/21 02:43:57;;;;;;;17.08;8.80;;;;;;;21.66;58.79;92541.66;2048389;70;20608;-73
2022/06/21 02:46:30;;;;;;;16.23;8.75;;;;;;;21.67;58.86;92545.22;2048592;70;20151;-74
2022/06/21 02:49:01;;;;;;;17.52;9.63;;;;;;;21.78;57.36;92539.00;2048186;70;20158;-73
2022/06/21 02:51:36;;;;;;;15.50;8.80;;;;;;;21.67;58.65;92554.56;2045566;70;20158;-73
2022/06/21 02:54:10;;;;;;;13.48;8.80;;;;;;;21.65;57.33;92554.53;2048714;70;20162;-72
2022/06/21 02:56:47;;;;;;;14.02;9.35;;;;;;;21.51;58.90;92552.13;2048415;70;20159;-72
2022/06/21 02:59:15;;;;;;;19.58;9.95;;;;;;;21.40;59.67;92552.66;2047797;70;20245;-72
2022/06/21 03:01:53;;;;;;;12.38;9.00;;;;;;;21.42;58.55;92556.28;2045037;70;20209;-73
2022/06/21 03:04:32;;;;;;;14.45;9.07;;;;;;;21.34;59.75;92564.69;2047502;70;20228;-73
2022/06/21 03:06:58;;;;;;;13.50;8.25;;;;;;;21.37;59.23;92557.63;2046371;70;20163;-72
2022/06/21 03:09:24;;;;;;;13.43;9.38;;;;;;;21.17;60.17;92555.06;2045973;70;20237;-73
2022/06/21 03:12:02;;;;;;;13.88;8.88;;;;;;;21.45;56.42;92557.75;2048476;70;20165;-73
2022/06/21 03:14:30;;;;;;;14.63;9.75;;;;;;;21.34;58.90;92553.25;2048929;70;20143;-73
2022/06/21 03:16:59;;;;;;;14.88;9.18;;;;;;;21.24;59.74;92555.91;2049066;70;20147;-73
2022/06/21 03:19:29;;;;;;;15.73;10.13;;;;;;;21.14;59.62;92565.03;2048140;70;20183;-73
2022/06/21 03:21:55;;;;;;;15.50;9.13;;;;;;;21.05;60.33;92564.13;2045803;70;20618;-73
2022/06/21 03:24:23;;;;;;;13.25;8.90;;;;;;;21.05;59.94;92563.41;2048846;70;20619;-73
2022/06/21 03:27:03;;;;;;;13.95;9.50;;;;;;;21.02;59.99;92564.78;2048947;70;20146;-73
2022/06/21 03:29:30;;;;;;;12.85;9.60;;;;;;;20.97;59.97;92566.84;2048121;70;20619;-73
2022/06/21 03:31:59;;;;;;;18.88;10.65;;;;;;;20.65;61.06;92571.88;2045299;70;20175;-74
2022/06/21 03:34:26;;;;;;;14.52;8.95;;;;;;;20.87;60.70;92560.91;2045611;70;20161;-74
2022/06/21 03:36:52;;;;;;;16.58;8.88;;;;;;;20.85;61.12;92577.28;2045506;70;20167;-74
2022/06/21 03:41:42;;;;;;;17.98;10.07;;;;;;;20.88;59.26;92575.94;2045313;70;20611;-75
2022/06/21 03:42:15;;;;;;;15.13;9.48;;;;;;;21.03;59.47;92569.84;2045419;70;20198;-75
2022/06/21 03:44:54;;;;;;;15.02;9.45;;;;;;;20.85;61.05;92571.56;2045433;70;20517;-74
2022/06/21 03:47:35;;;;;;;13.90;8.98;;;;;;;20.85;61.02;92574.44;2045326;70;20162;-74
2022/06/21 03:50:15;;;;;;;16.58;9.43;;;;;;;21.08;57.61;92569.91;2046643;70;20263;-73
2022/06/21 03:52:56;;;;;;;15.43;10.05;;;;;;;21.07;59.10;92569.16;2048272;70;20158;-73
2022/06/21 03:55:30;;;;;;;18.40;10.00;;;;;;;20.93;59.32;92575.34;2048520;70;20162;-72
2022/06/21 03:58:16;;;;;;;13.82;10.27;;;;;;;20.65;61.15;92563.31;2048616;70;20600;-73
2022/06/21 04:01:06;;;;;;;19.50;9.90;;;;;;;20.78;60.53;92577.19;2046340;70;20159;-73
2022/06/21 04:03:42;;;;;;;16.83;10.23;;;;;;;20.91;60.06;92574.59;2045109;70;20614;-73
2022/06/21 04:06:41;;;;;;;17.58;10.15;;;;;;;20.80;59.40;92567.91;2045456;70;20143;-73
2022/06/21 04:09:16;;;;;;;17.52;10.68;;;;;;;20.84;59.92;92564.41;2045225;70;20557;-72
2022/06/21 04:11:58;;;;;;;17.63;11.00;;;;;;;20.75;60.81;92566.38;2048371;70;20577;-76
2022/06/21 04:14:39;;;;;;;17.38;11.38;;;;;;;20.67;62.29;92571.94;2045594;70;20230;-73
2022/06/21 04:17:10;;;;;;;17.75;10.10;;;;;;;20.75;61.18;92566.38;2045678;69;20166;-74
2022/06/21 04:20:07;;;;;;;14.60;10.07;;;;;;;20.75;61.95;92578.53;2046021;70;20194;-74
2022/06/21 04:22:47;;;;;;;15.30;10.52;;;;;;;20.68;62.46;92576.25;2046786;70;20185;-74
2022/06/21 04:25:23;;;;;;;18.38;9.80;;;;;;;20.81;62.21;92575.09;2048666;70;20643;-74
2022/06/21 04:28:01;;;;;;;13.30;9.60;;;;;;;20.84;61.78;92578.72;2048680;70;20142;-74
2022/06/21 04:30:34;;;;;;;19.48;11.18;;;;;;;20.47;62.73;92575.78;2044676;70;20147;-75
2022/06/21 04:33:14;;;;;;;16.58;11.13;;;;;;;20.31;62.84;92579.00;2046874;70;20141;-74
2022/06/21 04:36:00;;;;;;;18.30;10.55;;;;;;;20.72;60.45;92582.06;2048771;70;20147;-74
2022/06/21 04:38:29;;;;;;;18.40;10.52;;;;;;;20.46;62.92;92579.31;2049099;70;20535;-74
2022/06/21 04:41:03;;;;;;;19.77;10.30;;;;;;;20.62;62.01;92576.09;2046328;70;20143;-74
2022/06/21 04:43:35;;;;;;;16.42;10.35;;;;;;;20.50;62.70;92577.31;2046182;70;20206;-74
2022/06/21 04:46:05;;;;;;;16.75;10.45;;;;;;;20.71;60.38;92569.91;2045603;70;20162;-74
2022/06/21 04:48:48;;;;;;;18.33;10.80;;;;;;;20.63;62.89;92577.56;2048992;70;20535;-74
2022/06/21 04:51:38;;;;;;;18.40;10.77;;;;;;;20.59;62.92;92583.91;2042840;70;20167;-74
2022/06/21 04:54:28;;;;;;;20.85;10.63;;;;;;;20.66;62.50;92576.19;2048208;70;20155;-74
2022/06/21 04:56:59;;;;;;;15.63;10.15;;;;;;;20.70;61.77;92576.28;2046327;70;20172;-74
2022/06/21 04:59:47;;;;;;;15.18;10.10;;;;;;;20.93;60.64;92571.75;2048507;70;20633;-74
2022/06/21 05:02:19;;;;;;;18.77;10.70;;;;;;;20.75;62.58;92572.09;2045420;70;20712;-73
2022/06/21 05:04:48;;;;;;;17.98;11.27;;;;;;;20.69;62.93;92561.25;2045571;70;20207;-74
2022/06/21 05:07:22;;;;;;;17.20;11.05;;;;;;;20.80;62.50;92560.06;2045553;70;20527;-74
2022/06/21 05:09:50;;;;;;;17.50;10.40;;;;;;;20.99;61.92;92564.03;2045561;70;20166;-73
2022/06/21 05:12:32;;;;;;;18.92;10.45;;;;;;;21.04;61.16;92559.09;2045389;70;20216;-72
2022/06/21 05:15:06;;;;;;;16.55;10.60;;;;;;;21.00;62.71;92550.44;2045583;70;20212;-72
2022/06/21 05:17:37;;;;;;;18.27;10.38;;;;;;;21.30;61.75;92553.16;2042300;69;20334;-73
2022/06/21 05:20:11;;;;;;;19.52;10.57;;;;;;;21.23;62.95;92558.03;2042525;70;20244;-74
2022/06/21 05:22:42;;;;;;;17.80;11.30;;;;;;;21.16;63.42;92559.31;2046072;69;20142;-74
2022/06/21 05:25:36;;;;;;;19.77;11.35;;;;;;;21.16;64.09;92555.75;2042390;70;20686;-74
2022/06/21 05:28:09;;;;;;;16.35;11.90;;;;;;;21.02;63.14;92561.91;2044872;70;20158;-74
2022/06/21 05:31:17;;;;;;;17.38;11.57;;;;;;;21.08;62.87;92556.34;2042219;70;20147;-73
2022/06/21 05:33:46;;;;;;;19.40;11.73;;;;;;;20.53;64.08;92558.06;2043053;70;20169;-72
2022/06/21 05:36:18;;;;;;;21.95;11.25;;;;;;;20.71;63.47;92544.16;2045529;70;20135;-73
2022/06/21 05:38:52;;;;;;;19.52;12.02;;;;;;;20.94;62.20;92553.19;2045399;70;20147;-73
2022/06/21 05:41:42;;;;;;;16.95;11.68;;;;;;;21.04;61.58;92545.53;2045517;70;20151;-73
2022/06/21 05:44:11;;;;;;;16.52;11.60;;;;;;;20.84;64.67;92552.97;2045326;70;20147;-73
2022/06/21 05:46:44;;;;;;;19.17;12.38;;;;;;;20.91;64.11;92563.84;2042291;70;20179;-73
2022/06/21 05:49:21;;;;;;;16.92;11.60;;;;;;;20.86;64.87;92564.47;2042287;70;20170;-73
2022/06/21 05:51:49;;;;;;;16.45;11.13;;;;;;;20.99;62.41;92561.16;2045462;70;20619;-73
2022/06/21 05:54:18;;;;;;;16.55;11.10;;;;;;;20.93;64.22;92566.03;2048172;70;20163;-73
2022/06/21 05:56:44;;;;;;;15.98;11.02;;;;;;;21.04;63.98;92565.56;2048810;70;20222;-74
2022/06/21 05:59:17;;;;;;;15.57;10.77;;;;;;;21.11;64.96;92554.22;2048239;70;20620;-73
2022/06/21 06:01:57;;;;;;;19.15;11.43;;;;;;;21.18;64.84;92553.66;2045450;70;20170;-74
2022/06/21 06:04:45;;;;;;;17.55;11.93;;;;;;;21.28;62.91;92553.84;2048402;70;20182;-74
2022/06/21 06:07:30;;;;;;;22.60;12.52;;;;;;;21.22;63.82;92553.75;2048659;70;20226;-76
2022/06/21 06:10:00;;;;;;;17.42;11.65;;;;;;;21.49;63.06;92546.38;2043467;70;20150;-73
2022/06/21 06:12:36;;;;;;;17.13;12.05;;;;;;;21.58;61.74;92553.00;2045418;70;20147;-73
2022/06/21 06:15:04;;;;;;;15.80;11.07;;;;;;;21.83;57.75;92543.38;2042372;70;20159;-74
2022/06/21 06:17:52;;;;;;;20.17;12.35;;;;;;;21.82;59.13;92541.22;2045912;70;20637;-74
2022/06/21 06:20:57;;;;;;;20.45;12.10;;;;;;;21.87;60.95;92550.59;2045655;69;20602;-74
2022/06/21 06:23:38;;;;;;;15.82;12.30;;;;;;;21.88;60.00;92546.31;2044971;70;20162;-74
2022/06/21 06:26:18;;;;;;;18.20;12.05;;;;;;;21.98;60.57;92555.06;2045978;70;20230;-74
2022/06/21 06:29:11;;;;;;;17.33;12.77;;;;;;;22.31;55.87;92553.44;2045856;70;20246;-75
2022/06/21 06:31:45;;;;;;;22.05;12.05;;;;;;;22.31;58.70;92557.06;2045861;69;20138;-75
2022/06/21 06:34:14;;;;;;;16.33;11.70;;;;;;;22.37;60.01;92558.56;2045817;70;20163;-75
2022/06/21 06:36:49;;;;;;;17.60;11.85;;;;;;;22.43;59.75;92556.50;2045730;70;20212;-74
2022/06/21 06:39:21;;;;;;;22.23;12.38;;;;;;;22.57;59.61;92548.09;2049070;70;20166;-75
2022/06/21 06:42:12;;;;;;;20.98;12.60;;;;;;;22.82;59.97;92542.69;2049183;70;20154;-74
2022/06/21 06:44:57;;;;;;;18.75;12.23;;;;;;;22.92;59.25;92536.38;2048816;70;20261;-75
2022/06/21 06:47:36;;;;;;;17.00;13.05;;;;;;;23.01;58.76;92532.91;2047360;70;20539;-75
2022/06/21 06:50:25;;;;;;;21.60;12.55;;;;;;;23.09;57.81;92523.66;2045991;70;20619;-76
2022/06/21 06:52:53;;;;;;;21.17;11.95;;;;;;;23.28;56.80;92530.34;2045852;70;20151;-76
2022/06/21 06:55:30;;;;;;;17.75;12.13;;;;;;;23.25;56.11;92523.13;2045747;70;20213;-77
2022/06/21 06:58:06;;;;;;;18.67;11.85;;;;;;;23.09;56.70;92532.25;2046283;70;20151;-75
2022/06/21 07:00:44;;;;;;;17.20;12.77;;;;;;;23.27;56.75;92531.75;2046055;70;20616;-75
2022/06/21 07:03:18;;;;;;;20.58;12.55;;;;;;;23.43;56.43;92534.09;2049234;69;20689;-76
2022/06/21 07:06:08;;;;;;;16.88;12.30;;;;;;;23.16;55.39;92536.66;2045855;70;20147;-75
2022/06/21 07:08:52;;;;;;;21.90;12.25;;;;;;;23.52;55.98;92541.34;2048262;69;20697;-75
2022/06/21 07:11:26;;;;;;;20.50;11.65;;;;;;;23.79;54.67;92548.84;2046711;70;20150;-75
2022/06/21 07:13:53;;;;;;;26.80;11.30;;;;;;;23.94;55.47;92534.56;2047463;70;20187;-76
2022/06/21 07:16:22;;;;;;;19.23;11.25;;;;;;;23.83;54.23;92536.66;2048778;70;20150;-75
2022/06/21 07:18:57;;;;;;;17.52;11.68;;;;;;;24.05;53.98;92533.97;2048417;70;20163;-74
2022/06/21 07:21:23;;;;;;;16.27;10.75;;;;;;;24.23;55.23;92538.41;2048445;70;20210;-75
2022/06/21 07:23:52;;;;;;;21.20;10.52;;;;;;;24.07;53.09;92539.72;2047907;70;20151;-75
2022/06/21 07:26:40;;;;;;;16.13;11.50;;;;;;;24.31;52.77;92524.78;2048544;70;20203;-75
2022/06/21 07:29:28;;;;;;;17.58;10.38;;;;;;;24.21;54.85;92527.59;2048632;70;20161;-76
2022/06/21 07:31:57;;;;;;;14.25;10.48;;;;;;;24.46;52.90;92519.88;2048650;70;20193;-75
2022/06/21 07:34:30;;;;;;;16.08;10.75;;;;;;;24.58;53.17;92519.25;2046149;70;20179;-73
2022/06/21 07:37:01;;;;;;;;;;;;;;;24.52;53.01;92508.41;2047016;70;20186;-73
2022/06/21 07:39:41;;;;;;;16.90;12.55;;;;;;;24.41;53.81;92512.66;2044570;70;20054;-74
2022/06/21 07:42:40;;;;;;;17.58;12.60;;;;;;;24.34;53.05;92505.41;2048712;70;20542;-74
2022/06/21 07:45:18;;;;;;;17.95;12.27;;;;;;;24.31;53.30;92510.41;2047047;70;20694;-74
2022/06/21 07:48:16;;;;;;;18.30;12.15;;;;;;;24.81;53.52;92503.53;2047639;70;20613;-74
2022/06/21 07:50:54;;;;;;;18.70;12.43;;;;;;;25.03;51.90;92482.75;2044075;70;20170;-73
2022/06/21 07:53:24;;;;;;;17.23;12.48;;;;;;;25.04;52.32;92484.19;2048563;70;20159;-76
2022/06/21 07:56:03;;;;;;;18.20;12.35;;;;;;;24.52;53.33;92476.78;2048143;70;20453;-75
2022/06/21 07:58:44;;;;;;;15.88;11.25;;;;;;;24.89;51.85;92470.47;2048175;69;20241;-73
2022/06/21 08:07:04;;;;;;;23.25;12.68;;;;;;;24.67;52.21;92473.97;2046767;70;20163;-74
2022/06/21 08:10:28;;;;;;;18.48;12.05;;;;;;;24.71;52.57;92480.47;2046760;70;20304;-75
2022/06/21 08:12:55;;;;;;;20.00;11.07;;;;;;;25.01;52.13;92476.97;2044853;70;20262;-75
2022/06/21 08:15:26;;;;;;;16.23;11.20;;;;;;;25.20;51.78;92477.03;2047353;70;20159;-74
2022/06/21 08:18:02;;;;;;;16.60;10.80;;;;;;;24.99;51.70;92479.13;2048100;70;20162;-75
2022/06/21 08:20:43;;;;;;;17.90;10.93;;;;;;;25.19;51.85;92481.38;2048665;70;20171;-74
2022/06/21 08:23:22;;;;;;;15.50;11.82;;;;;;;25.73;51.60;92468.50;2048326;70;20232;-74
2022/06/21 08:26:09;;;;;;;21.15;11.48;;;;;;;26.05;51.06;92473.56;2048934;70;20612;-74
2022/06/21 08:29:07;;;;;;;18.40;11.23;;;;;;;26.29;49.80;92464.16;2050195;69;20618;-73
2022/06/21 08:31:39;;;;;;;16.90;11.63;;;;;;;26.45;49.27;92467.06;2049819;70;20143;-74
2022/06/21 08:34:17;;;;;;;13.63;10.32;;;;;;;26.77;49.03;92466.25;2046780;70;20167;-74
2022/06/21 08:36:53;;;;;;;20.33;10.70;;;;;;;26.97;47.58;92458.94;2048461;70;20581;-74
2022/06/21 08:39:29;;;;;;;16.83;10.43;;;;;;;26.91;46.96;92467.63;2048922;70;20154;-73
2022/06/21 08:42:32;;;;;;;19.10;10.05;;;;;;;27.76;46.58;92455.63;2048856;70;20135;-74
2022/06/21 08:48:12;;;;;;;16.35;9.90;;;;;;;28.12;44.87;92469.09;2046088;70;20246;-74
2022/06/21 08:50:56;;;;;;;15.93;9.23;;;;;;;27.71;44.58;92457.09;2049217;70;20150;-75
2022/06/21 08:53:38;;;;;;;19.58;9.52;;;;;;;28.52;43.22;92461.50;2047072;70;20505;-75
2022/06/21 08:56:04;;;;;;;18.67;9.47;;;;;;;28.10;43.99;92465.50;2045478;70;20147;-74
2022/06/21 08:58:46;;;;;;;17.98;9.38;;;;;;;28.30;42.80;92459.53;2045459;70;20158;-74
2022/06/21 09:01:35;;;;;;;17.20;9.67;;;;;;;28.21;42.95;92457.44;2047449;70;20154;-74
2022/06/21 09:04:22;;;;;;;14.70;8.50;;;;;;;27.82;42.70;92457.78;2043359;70;20279;-76
2022/06/21 09:07:03;;;;;;;14.82;8.65;;;;;;;28.42;42.40;92452.22;2045798;69;20247;-74
2022/06/21 09:09:50;;;;;;;18.98;8.77;;;;;;;29.04;42.06;92461.69;2047723;70;20154;-75
2022/06/21 09:13:00;;;;;;;12.35;9.18;;;;;;;29.38;42.86;92451.84;2046411;70;20532;-76
2022/06/21 09:15:42;;;;;;;14.25;9.13;;;;;;;29.37;43.49;92451.13;2045683;70;20151;-74
2022/06/21 09:18:17;;;;;;;15.27;8.95;;;;;;;29.72;41.28;92441.94;2048883;70;20146;-75
2022/06/21 09:20:55;;;;;;;15.05;9.55;;;;;;;29.82;41.84;92444.69;2048555;70;20746;-75
2022/06/21 09:23:37;;;;;;;14.23;9.02;;;;;;;30.06;41.37;92442.88;2046147;70;20151;-75
2022/06/21 09:26:34;;;;;;;12.00;8.68;;;;;;;30.51;38.84;92434.09;2042118;70;20730;-74
2022/06/21 09:29:26;;;;;;;13.63;8.85;;;;;;;30.70;39.16;92427.97;2047821;70;20162;-76
2022/06/21 09:32:30;;;;;;;19.20;9.10;;;;;;;30.84;38.96;92425.53;2046218;70;20185;-75
2022/06/21 09:35:19;;;;;;;17.55;8.52;;;;;;;31.28;38.26;92422.50;2045931;69;20151;-75
2022/06/21 09:38:09;;;;;;;15.35;8.80;;;;;;;31.29;37.00;92429.72;2046125;69;20157;-76
2022/06/21 09:40:41;;;;;;;14.35;8.23;;;;;;;31.28;37.96;92419.59;2047494;70;20245;-76
2022/06/21 09:43:13;;;;;;;19.80;8.73;;;;;;;31.53;37.64;92414.66;2048808;70;20596;-77
2022/06/21 09:46:08;;;;;;;14.07;8.73;;;;;;;31.57;38.44;92417.50;2048589;70;20604;-78
2022/06/21 09:48:37;;;;;;;14.48;8.77;;;;;;;30.60;37.97;92406.34;2048124;70;20655;-76
2022/06/21 09:51:15;;;;;;;13.80;8.93;;;;;;;30.95;39.24;92417.31;2044172;70;20161;-77
2022/06/21 09:54:12;;;;;;;15.73;8.77;;;;;;;31.17;38.97;92421.25;2049486;70;20150;-77
2022/06/21 09:57:06;;;;;;;23.85;9.10;;;;;;;30.95;38.54;92413.72;2046656;70;20166;-77
2022/06/21 09:59:52;;;;;;;15.18;8.48;;;;;;;30.58;39.23;92411.50;2042764;70;20147;-77
2022/06/21 10:02:52;;;;;;;15.85;9.52;;;;;;;29.95;40.25;92407.50;2046374;70;20166;-76
2022/06/21 10:05:37;;;;;;;14.25;8.88;;;;;;;30.74;39.66;92404.66;2048926;70;20142;-75
2022/06/21 10:08:05;;;;;;;16.73;9.18;;;;;;;30.42;39.71;92405.97;2045872;70;20154;-78
2022/06/21 10:10:50;;;;;;;19.08;8.77;;;;;;;31.59;38.09;92414.53;2042864;70;20206;-76
2022/06/21 10:13:16;;;;;;;14.65;8.18;;;;;;;31.83;37.53;92407.44;2038882;70;20197;-76
2022/06/21 10:16:26;;;;;;;16.13;8.57;;;;;;;32.05;36.93;92414.91;2039321;70;20531;-76
2022/06/21 10:18:55;;;;;;;11.52;8.65;;;;;;;31.43;37.40;92409.09;2051008;70;20143;-76
2022/06/21 10:21:39;;;;;;;17.13;8.30;;;;;;;31.64;37.28;92397.69;2048238;69;20151;-77
2022/06/21 10:24:31;;;;;;;15.55;8.60;;;;;;;32.25;37.08;92404.94;2049447;70;20167;-76
2022/06/21 10:27:22;;;;;;;17.67;8.52;;;;;;;32.72;36.37;92400.13;2047420;70;20226;-75
2022/06/21 10:30:07;;;;;;;13.77;7.88;;;;;;;32.88;35.08;92402.59;2045548;70;20143;-74
2022/06/21 10:32:57;;;;;;;15.73;8.43;;;;;;;31.74;36.87;92400.34;2045644;70;20234;-77
2022/06/21 10:35:30;;;;;;;14.30;8.15;;;;;;;31.92;35.87;92396.31;2045942;70;20151;-77
2022/06/21 10:38:03;;;;;;;19.52;7.95;;;;;;;31.51;37.12;92390.72;2045635;70;20163;-76
2022/06/21 10:40:41;;;;;;;15.05;7.57;;;;;;;31.71;37.14;92383.72;2045369;70;20166;-75
2022/06/21 10:43:29;;;;;;;19.30;8.27;;;;;;;31.63;37.24;92388.25;2042549;70;20171;-75
2022/06/21 10:45:58;;;;;;;18.25;8.70;;;;;;;31.43;37.66;92385.81;2048405;70;20157;-75
2022/06/21 10:48:45;;;;;;;14.15;8.63;;;;;;;30.70;37.85;92393.09;2048310;70;20289;-75
2022/06/21 10:51:27;;;;;;;11.65;8.50;;;;;;;30.79;38.24;92406.75;2045545;70;20178;-75
2022/06/21 10:54:01;;;;;;;17.30;8.10;;;;;;;31.06;38.34;92418.53;2045338;70;20151;-76
2022/06/21 10:57:11;;;;;;;13.43;8.13;;;;;;;31.07;41.98;92419.28;2045411;70;20151;-76
2022/06/21 11:03:07;;;;;;;20.63;8.63;;;;;;;34.04;43.19;92424.72;2047239;70;20147;-75
2022/06/21 11:05:57;;;;;;;13.55;8.15;;;;;;;37.73;33.37;92415.59;2045521;70;20158;-76
2022/06/21 11:08:37;;;;;;;15.85;7.88;;;;;;;39.52;29.15;92420.69;2045146;70;20150;-76
2022/06/21 11:11:29;;;;;;;15.60;8.10;;;;;;;37.89;27.95;92409.69;2048762;70;20219;-76
2022/06/21 11:14:18;;;;;;;11.23;7.10;;;;;;;39.53;26.58;92405.16;2047168;70;20264;-75
2022/06/21 11:16:59;;;;;;;13.50;7.40;;;;;;;40.08;25.09;92410.28;2045632;70;20190;-75
2022/06/21 11:19:28;;;;;;;13.93;7.47;;;;;;;42.07;24.25;92394.09;2045224;70;20234;-82
2022/06/21 11:22:05;;;;;;;9.98;6.53;;;;;;;43.05;22.31;92403.19;2042381;70;20145;-77
2022/06/21 11:24:34;;;;;;;9.23;6.00;;;;;;;45.10;21.39;92407.88;2045314;70;20147;-77
2022/06/21 11:27:13;;;;;;;13.15;5.97;;;;;;;43.94;21.87;92400.81;2046867;70;20143;-78
2022/06/21 11:29:39;;;;;;;13.27;6.30;;;;;;;42.55;22.11;92384.28;2046584;70;20147;-77
2022/06/21 11:32:16;;;;;;;12.57;6.13;;;;;;;43.32;22.44;92387.28;2047812;70;20158;-76
2022/06/21 11:34:59;;;;;;;9.48;5.60;;;;;;;43.89;21.44;92380.34;2045529;70;20186;-76
2022/06/21 11:37:25;;;;;;;13.65;5.55;;;;;;;46.84;18.10;92367.41;2047407;70;20672;-76
2022/06/21 11:40:13;;;;;;;9.77;5.07;;;;;;;48.01;18.72;92361.88;2046930;70;20196;-77
2022/06/21 11:42:48;;;;;;;12.23;5.15;;;;;;;47.77;17.49;92355.75;2045218;70;20163;-76
2022/06/21 11:45:34;;;;;;;10.45;5.30;;;;;;;47.68;17.42;92349.09;2045729;70;20560;-77
2022/06/21 11:48:21;;;;;;;15.00;5.10;;;;;;;48.13;17.11;92350.44;2045686;70;20154;-77
2022/06/21 11:50:55;;;;;;;12.45;5.07;;;;;;;44.81;19.34;92335.09;2043277;70;20150;-77
2022/06/21 11:53:39;;;;;;;11.05;4.75;;;;;;;40.49;20.53;92323.19;2045814;70;20617;-77
2022/06/21 11:56:28;;;;;;;13.25;5.18;;;;;;;39.40;24.40;92324.91;2045593;70;20226;-76
2022/06/21 11:59:37;;;;;;;10.05;4.88;;;;;;;38.55;24.83;92333.72;2045482;70;20202;-76
2022/06/21 12:02:29;;;;;;;12.60;5.40;;;;;;;37.46;27.62;92331.66;2047267;70;20213;-77
2022/06/21 12:05:16;;;;;;;12.35;5.20;;;;;;;36.62;29.23;92343.50;2045777;70;20174;-76
2022/06/21 12:08:01;;;;;;;17.25;5.38;;;;;;;36.34;29.69;92360.03;2045481;70;20179;-77
2022/06/21 12:10:36;;;;;;;12.52;5.68;;;;;;;36.29;29.95;92349.97;2046203;70;20236;-76
2022/06/21 12:13:01;;;;;;;17.08;6.15;;;;;;;36.90;29.62;92338.59;2045623;70;20216;-77
2022/06/21 12:15:55;;;;;;;12.80;5.40;;;;;;;37.12;27.85;92319.28;2048710;70;20166;-77
2022/06/21 12:18:24;;;;;;;16.33;6.05;;;;;;;34.99;28.90;92309.00;2048953;70;20139;-76
2022/06/21 12:20:51;;;;;;;12.18;6.28;;;;;;;35.64;28.69;92315.25;2048117;70;20197;-75
2022/06/21 12:23:41;;;;;;;14.45;6.63;;;;;;;35.02;29.93;92322.03;2048594;70;20149;-76